createdAt,value
2018-03-04T00:00:21.074Z,92.2
2018-03-04T00:02:31.804Z,92.1
2018-03-04T00:03:33.469Z,92.4
2018-03-04T00:04:35.129Z,92.3
2018-03-04T00:05:36.763Z,92.4
2018-03-04T00:06:38.424Z,92.2
2018-03-04T00:07:40.070Z,92.3
2018-03-04T00:08:41.723Z,92.8
2018-03-04T00:09:43.386Z,92.3
2018-03-04T00:10:45.028Z,92.3
2018-03-04T00:11:46.713Z,92.8
2018-03-04T00:12:48.364Z,92.5
2018-03-04T00:13:50.023Z,92.5
2018-03-04T00:14:51.668Z,92.4
2018-03-04T00:15:53.318Z,92.8
2018-03-04T00:16:54.972Z,92.5
2018-03-04T00:17:56.643Z,92.0
2018-03-04T00:18:58.297Z,92.3
2018-03-04T00:19:59.953Z,92.3
2018-03-04T00:21:01.616Z,92.8
2018-03-04T00:22:03.276Z,92.5
2018-03-04T00:23:04.920Z,92.7
2018-03-04T00:24:06.572Z,92.6
2018-03-04T00:25:08.217Z,92.4
2018-03-04T00:26:09.870Z,92.1
2018-03-04T00:27:11.529Z,92.4
2018-03-04T00:28:13.173Z,92.8
2018-03-04T00:29:14.828Z,92.4
2018-03-04T00:30:16.473Z,92.6
2018-03-04T00:31:18.137Z,92.5
2018-03-04T00:32:19.790Z,92.7
2018-03-04T00:33:21.436Z,93.1
2018-03-04T00:34:23.095Z,93.3
2018-03-04T00:35:24.741Z,93.0
2018-03-04T00:36:26.390Z,92.5
2018-03-04T00:37:28.088Z,93.1
2018-03-04T00:38:29.748Z,92.5
2018-03-04T00:39:31.408Z,92.7
2018-03-04T00:40:33.059Z,92.6
2018-03-04T00:41:34.715Z,92.5
2018-03-04T00:42:36.391Z,91.8
2018-03-04T00:43:38.043Z,91.8
2018-03-04T00:44:39.693Z,92.8
2018-03-04T00:45:41.347Z,92.4
2018-03-04T00:46:43.007Z,92.7
2018-03-04T00:47:44.655Z,92.8
2018-03-04T00:48:46.320Z,92.6
2018-03-04T00:49:47.978Z,92.4
2018-03-04T00:50:49.630Z,92.0
2018-03-04T00:51:51.269Z,92.3
2018-03-04T00:52:52.913Z,92.2
2018-03-04T00:53:54.572Z,92.3
2018-03-04T00:54:56.234Z,91.5
2018-03-04T00:55:57.885Z,91.5
2018-03-04T00:56:59.545Z,91.5
2018-03-04T00:58:01.197Z,91.5
2018-03-04T00:59:02.847Z,91.5
2018-03-04T01:00:04.510Z,91.3
2018-03-04T01:01:06.160Z,91.3
2018-03-04T01:02:07.833Z,91.6
2018-03-04T01:03:09.502Z,91.4
2018-03-04T01:04:11.176Z,91.4
2018-03-04T01:05:12.826Z,91.1
2018-03-04T01:06:14.470Z,91.2
2018-03-04T01:07:16.125Z,90.8
2018-03-04T01:08:17.777Z,90.8
2018-03-04T01:09:19.429Z,90.7
2018-03-04T01:10:21.075Z,90.6
2018-03-04T01:11:22.726Z,90.4
2018-03-04T01:12:24.391Z,91.2
2018-03-04T01:13:26.041Z,90.8
2018-03-04T01:14:27.744Z,91.0
2018-03-04T01:15:29.397Z,90.8
2018-03-04T01:16:31.045Z,90.9
2018-03-04T01:17:32.710Z,90.7
2018-03-04T01:18:34.365Z,90.6
2018-03-04T01:19:36.027Z,90.5
2018-03-04T01:20:37.675Z,90.7
2018-03-04T01:21:39.319Z,90.7
2018-03-04T01:22:40.976Z,90.8
2018-03-04T01:23:42.625Z,90.2
2018-03-04T01:24:44.271Z,89.9
2018-03-04T01:25:45.926Z,90.7
2018-03-04T01:26:47.639Z,90.2
2018-03-04T01:27:49.283Z,90.1
2018-03-04T01:28:50.933Z,90.1
2018-03-04T01:29:52.598Z,89.8
2018-03-04T01:30:54.241Z,89.9
2018-03-04T01:31:55.898Z,89.9
2018-03-04T01:32:57.549Z,89.4
2018-03-04T01:33:59.204Z,89.6
2018-03-04T01:35:00.856Z,89.5
2018-03-04T01:36:02.514Z,90.0
2018-03-04T01:37:04.168Z,89.6
2018-03-04T01:38:05.816Z,89.5
2018-03-04T01:39:07.475Z,88.7
2018-03-04T01:40:09.121Z,88.1
2018-03-04T01:41:10.773Z,87.8
2018-03-04T01:42:12.422Z,88.2
2018-03-04T01:43:14.071Z,88.8
2018-03-04T01:44:15.768Z,88.3
2018-03-04T01:45:17.416Z,88.6
2018-03-04T01:46:19.065Z,88.0
2018-03-04T01:47:20.722Z,87.6
2018-03-04T01:48:22.365Z,88.3
2018-03-04T01:49:24.024Z,88.3
2018-03-04T01:50:25.664Z,87.9
2018-03-04T01:51:27.391Z,88.0
2018-03-04T01:52:29.052Z,88.2
2018-03-04T01:53:30.707Z,88.4
2018-03-04T01:54:32.354Z,88.2
2018-03-04T01:55:34.010Z,87.8
2018-03-04T01:56:35.650Z,87.9
2018-03-04T01:57:37.312Z,87.7
2018-03-04T01:58:38.966Z,87.4
2018-03-04T01:59:40.617Z,87.4
2018-03-04T02:00:42.273Z,86.8
2018-03-04T02:01:43.929Z,87.0
2018-03-04T02:02:45.577Z,87.4
2018-03-04T02:03:47.239Z,86.6
2018-03-04T02:04:48.910Z,86.4
2018-03-04T02:05:50.562Z,86.7
2018-03-04T02:06:52.211Z,86.2
2018-03-04T02:07:53.865Z,86.3
2018-03-04T02:08:55.517Z,85.4
2018-03-04T02:09:57.163Z,85.3
2018-03-04T02:10:58.832Z,85.8
2018-03-04T02:12:00.479Z,84.9
2018-03-04T02:13:02.147Z,85.1
2018-03-04T02:14:03.790Z,84.4
2018-03-04T02:15:05.489Z,84.4
2018-03-04T02:16:07.144Z,84.1
2018-03-04T02:17:08.793Z,84.1
2018-03-04T02:18:10.433Z,83.7
2018-03-04T02:19:12.082Z,83.4
2018-03-04T02:20:13.735Z,82.9
2018-03-04T02:21:15.397Z,83.1
2018-03-04T02:22:17.045Z,82.3
2018-03-04T02:23:18.696Z,82.6
2018-03-04T02:24:20.344Z,82.6
2018-03-04T02:25:21.995Z,81.8
2018-03-04T02:26:23.646Z,81.8
2018-03-04T02:27:25.306Z,81.5
2018-03-04T02:28:26.941Z,81.0
2018-03-04T02:29:28.594Z,80.6
2018-03-04T02:30:30.247Z,81.0
2018-03-04T02:31:31.910Z,80.8
2018-03-04T02:32:33.554Z,81.1
2018-03-04T02:33:35.194Z,80.3
2018-03-04T02:34:36.852Z,80.4
2018-03-04T02:35:38.516Z,80.1
2018-03-04T02:36:40.164Z,79.5
2018-03-04T02:37:41.828Z,79.8
2018-03-04T02:38:43.484Z,79.8
2018-03-04T02:39:45.143Z,79.5
2018-03-04T02:40:46.794Z,79.1
2018-03-04T02:41:48.445Z,78.6
2018-03-04T02:42:50.098Z,78.7
2018-03-04T02:43:51.754Z,78.2
2018-03-04T02:44:53.402Z,77.8
2018-03-04T02:45:55.048Z,77.8
2018-03-04T02:46:56.703Z,77.8
2018-03-04T02:47:58.343Z,77.4
2018-03-04T02:48:59.998Z,77.1
2018-03-04T02:50:01.650Z,77.0
2018-03-04T02:51:03.293Z,76.6
2018-03-04T02:52:04.954Z,76.9
2018-03-04T02:53:06.612Z,76.9
2018-03-04T02:54:08.304Z,76.8
2018-03-04T02:55:09.947Z,76.8
2018-03-04T03:01:17.824Z,76.4
2018-03-04T03:02:19.467Z,76.3
2018-03-04T03:03:21.114Z,76.0
2018-03-04T03:04:22.762Z,76.5
2018-03-04T03:05:24.408Z,76.2
2018-03-04T03:06:26.057Z,75.6
2018-03-04T03:07:27.713Z,76.5
2018-03-04T03:08:29.352Z,75.8
2018-03-04T03:09:30.994Z,75.7
2018-03-04T03:10:32.641Z,76.2
2018-03-04T03:11:34.291Z,76.4
2018-03-04T03:12:35.941Z,76.2
2018-03-04T03:13:37.590Z,76.8
2018-03-04T03:14:39.238Z,76.4
2018-03-04T03:15:40.898Z,76.6
2018-03-04T03:16:42.537Z,76.9
2018-03-04T03:17:44.182Z,76.6
2018-03-04T03:18:45.830Z,77.1
2018-03-04T03:19:47.480Z,76.7
2018-03-04T03:20:49.137Z,76.6
2018-03-04T03:21:50.794Z,76.5
2018-03-04T03:22:52.452Z,75.7
2018-03-04T03:23:54.098Z,75.6
2018-03-04T03:24:55.745Z,75.5
2018-03-04T03:25:57.398Z,75.5
2018-03-04T03:26:59.045Z,75.1
2018-03-04T03:28:00.697Z,75.6
2018-03-04T03:29:02.350Z,75.2
2018-03-04T03:30:03.997Z,75.2
2018-03-04T03:31:05.646Z,75.1
2018-03-04T03:32:07.299Z,75.7
2018-03-04T03:33:08.950Z,75.1
2018-03-04T03:34:10.585Z,75.3
2018-03-04T03:35:12.232Z,75.3
2018-03-04T03:36:13.888Z,75.3
2018-03-04T03:37:15.536Z,75.8
2018-03-04T03:38:17.186Z,75.9
2018-03-04T03:39:18.836Z,75.9
2018-03-04T03:40:20.482Z,75.9
2018-03-04T03:41:22.145Z,75.8
2018-03-04T03:42:23.795Z,75.5
2018-03-04T03:43:25.455Z,75.5
2018-03-04T03:44:27.117Z,75.6
2018-03-04T03:45:28.764Z,75.5
2018-03-04T03:46:30.416Z,75.8
2018-03-04T03:47:32.064Z,76.3
2018-03-04T03:48:33.722Z,76.5
2018-03-04T03:49:35.410Z,77.4
2018-03-04T03:50:37.061Z,77.1
2018-03-04T03:51:38.714Z,76.9
2018-03-04T03:52:40.351Z,77.5
2018-03-04T03:53:41.999Z,77.9
2018-03-04T03:54:43.645Z,78.1
2018-03-04T03:55:45.298Z,78.0
2018-03-04T03:56:46.950Z,77.6
2018-03-04T03:57:48.602Z,77.4
2018-03-04T03:58:50.313Z,77.3
2018-03-04T03:59:51.963Z,77.3
2018-03-04T04:00:53.616Z,77.2
2018-03-04T04:01:55.270Z,77.0
2018-03-04T04:02:56.927Z,76.9
2018-03-04T04:03:58.572Z,76.9
2018-03-04T04:05:00.233Z,76.6
2018-03-04T04:06:01.873Z,76.6
2018-03-04T04:07:03.521Z,76.4
2018-03-04T04:08:05.164Z,77.2
2018-03-04T04:09:06.814Z,76.7
2018-03-04T04:10:08.469Z,76.9
2018-03-04T04:11:10.120Z,76.9
2018-03-04T04:12:11.773Z,76.9
2018-03-04T04:13:13.424Z,76.9
2018-03-04T04:14:15.073Z,76.5
2018-03-04T04:15:16.713Z,76.2
2018-03-04T04:16:18.368Z,76.1
2018-03-04T04:17:20.015Z,76.6
2018-03-04T04:18:21.661Z,75.7
2018-03-04T04:19:23.315Z,75.6
2018-03-04T04:20:24.964Z,75.3
2018-03-04T04:21:26.608Z,74.9
2018-03-04T04:22:28.258Z,74.9
2018-03-04T04:23:29.907Z,75.0
2018-03-04T04:24:31.553Z,74.9
2018-03-04T04:25:33.213Z,74.4
2018-03-04T04:26:34.865Z,74.2
2018-03-04T04:27:36.516Z,73.5
2018-03-04T04:28:38.170Z,73.4
2018-03-04T04:29:39.820Z,73.0
2018-03-04T04:30:41.465Z,72.8
2018-03-04T04:31:43.116Z,72.8
2018-03-04T04:32:44.769Z,72.4
2018-03-04T04:33:46.418Z,71.5
2018-03-04T04:34:48.068Z,71.2
2018-03-04T04:35:49.711Z,70.8
2018-03-04T04:36:51.364Z,70.6
2018-03-04T04:37:53.013Z,70.3
2018-03-04T04:38:54.669Z,70.1
2018-03-04T04:39:56.313Z,70.0
2018-03-04T04:40:58.176Z,69.3
2018-03-04T04:41:59.830Z,69.3
2018-03-04T04:43:01.488Z,68.9
2018-03-04T04:44:03.138Z,67.9
2018-03-04T04:45:04.784Z,68.0
2018-03-04T04:46:06.430Z,67.4
2018-03-04T04:47:08.087Z,67.0
2018-03-04T04:48:09.745Z,66.9
2018-03-04T04:49:11.409Z,65.7
2018-03-04T04:50:13.040Z,65.6
2018-03-04T04:51:14.694Z,65.0
2018-03-04T04:52:16.345Z,64.9
2018-03-04T04:53:17.998Z,64.4
2018-03-04T04:54:19.663Z,63.9
2018-03-04T04:55:21.318Z,63.6
2018-03-04T04:56:22.970Z,62.9
2018-03-04T04:57:24.622Z,62.9
2018-03-04T04:58:26.276Z,62.3
2018-03-04T04:59:27.940Z,62.0
2018-03-04T05:00:29.581Z,61.5
2018-03-04T05:01:31.227Z,61.2
2018-03-04T05:02:32.874Z,60.9
2018-03-04T05:03:34.534Z,61.1
2018-03-04T05:04:36.186Z,60.6
2018-03-04T05:05:37.835Z,60.5
2018-03-04T05:06:39.494Z,60.1
2018-03-04T05:07:41.150Z,60.4
2018-03-04T05:08:42.812Z,59.6
2018-03-04T05:09:44.458Z,59.7
2018-03-04T05:10:46.131Z,59.3
2018-03-04T05:11:47.778Z,59.6
2018-03-04T05:12:49.424Z,59.3
2018-03-04T05:13:51.074Z,58.5
2018-03-04T05:14:52.736Z,58.6
2018-03-04T05:15:54.378Z,58.0
2018-03-04T05:16:56.030Z,58.0
2018-03-04T05:17:57.690Z,58.0
2018-03-04T05:18:59.334Z,58.0
2018-03-04T05:20:00.980Z,57.5
2018-03-04T05:21:02.632Z,57.6
2018-03-04T05:22:04.284Z,57.2
2018-03-04T05:23:05.922Z,56.6
2018-03-04T05:24:07.572Z,56.1
2018-03-04T05:25:09.290Z,56.0
2018-03-04T05:26:10.883Z,55.3
2018-03-04T05:27:12.544Z,55.6
2018-03-04T05:28:14.196Z,54.9
2018-03-04T05:29:15.846Z,54.6
2018-03-04T05:30:17.501Z,55.0
2018-03-04T05:31:19.151Z,54.3
2018-03-04T05:32:20.804Z,54.4
2018-03-04T05:33:22.451Z,54.3
2018-03-04T05:34:24.093Z,54.1
2018-03-04T05:35:25.742Z,53.6
2018-03-04T05:36:27.388Z,53.8
2018-03-04T05:37:29.036Z,53.0
2018-03-04T05:38:30.687Z,53.0
2018-03-04T05:39:32.345Z,52.5
2018-03-04T05:40:33.990Z,52.5
2018-03-04T05:41:35.635Z,52.0
2018-03-04T05:42:37.285Z,52.0
2018-03-04T05:43:38.928Z,52.0
2018-03-04T05:44:40.575Z,51.2
2018-03-04T05:45:42.240Z,51.6
2018-03-04T05:46:43.889Z,50.8
2018-03-04T05:47:45.544Z,50.8
2018-03-04T05:48:47.201Z,50.9
2018-03-04T05:49:48.849Z,50.7
2018-03-04T05:50:50.504Z,49.7
2018-03-04T05:51:52.159Z,49.7
2018-03-04T05:52:53.817Z,49.4
2018-03-04T05:53:55.466Z,49.0
2018-03-04T05:54:57.110Z,48.5
2018-03-04T05:55:58.767Z,48.2
2018-03-04T05:57:00.430Z,47.8
2018-03-04T05:58:02.072Z,47.8
2018-03-04T05:59:03.729Z,47.5
2018-03-04T06:00:05.378Z,47.1
2018-03-04T06:01:07.090Z,46.4
2018-03-04T06:02:08.690Z,46.2
2018-03-04T06:03:10.389Z,46.6
2018-03-04T06:04:12.050Z,46.3
2018-03-04T06:05:13.700Z,46.4
2018-03-04T06:06:15.366Z,46.3
2018-03-04T06:07:17.009Z,46.4
2018-03-04T06:08:18.660Z,45.9
2018-03-04T06:09:20.308Z,46.2
2018-03-04T06:10:21.964Z,45.9
2018-03-04T06:11:23.612Z,45.9
2018-03-04T06:12:25.261Z,45.8
2018-03-04T06:13:26.920Z,45.6
2018-03-04T06:14:28.570Z,45.9
2018-03-04T06:15:30.227Z,45.3
2018-03-04T06:16:31.870Z,45.1
2018-03-04T06:17:33.530Z,45.5
2018-03-04T06:18:35.183Z,45.4
2018-03-04T06:19:36.837Z,45.3
2018-03-04T06:20:38.496Z,45.1
2018-03-04T06:21:40.142Z,44.9
2018-03-04T06:22:41.791Z,44.8
2018-03-04T06:23:43.462Z,44.6
2018-03-04T06:24:45.119Z,44.2
2018-03-04T06:25:46.769Z,44.3
2018-03-04T06:26:48.420Z,44.0
2018-03-04T06:27:50.075Z,44.2
2018-03-04T06:28:51.729Z,44.0
2018-03-04T06:29:53.391Z,44.0
2018-03-04T06:30:55.048Z,44.2
2018-03-04T06:31:56.708Z,44.1
2018-03-04T06:32:58.363Z,43.8
2018-03-04T06:34:00.027Z,43.1
2018-03-04T06:35:01.679Z,43.3
2018-03-04T06:36:03.336Z,43.2
2018-03-04T06:37:04.986Z,42.9
2018-03-04T06:38:06.636Z,42.6
2018-03-04T06:39:08.287Z,43.0
2018-03-04T06:40:09.943Z,42.0
2018-03-04T06:41:11.606Z,42.5
2018-03-04T06:42:13.262Z,42.5
2018-03-04T06:43:14.933Z,42.1
2018-03-04T06:44:16.583Z,42.3
2018-03-04T06:45:18.234Z,41.9
2018-03-04T06:46:19.899Z,41.7
2018-03-04T06:47:21.559Z,41.9
2018-03-04T06:48:23.228Z,41.7
2018-03-04T06:49:24.877Z,41.3
2018-03-04T06:50:26.530Z,41.3
2018-03-04T06:51:28.194Z,41.3
2018-03-04T06:52:29.851Z,41.7
2018-03-04T06:53:31.507Z,41.3
2018-03-04T06:54:33.159Z,41.5
2018-03-04T07:00:57.951Z,41.3
2018-03-04T07:01:59.602Z,41.0
2018-03-04T07:03:01.254Z,40.8
2018-03-04T07:04:02.914Z,40.8
2018-03-04T07:05:04.568Z,40.7
2018-03-04T07:06:06.221Z,40.6
2018-03-04T07:07:07.888Z,40.4
2018-03-04T07:08:09.534Z,40.7
2018-03-04T07:09:11.193Z,40.7
2018-03-04T07:10:12.841Z,40.7
2018-03-04T07:11:14.499Z,40.7
2018-03-04T07:12:16.158Z,40.9
2018-03-04T07:13:17.809Z,41.1
2018-03-04T07:14:19.456Z,41.2
2018-03-04T07:15:21.112Z,41.2
2018-03-04T07:16:22.753Z,41.3
2018-03-04T07:17:24.421Z,41.5
2018-03-04T07:18:26.074Z,41.6
2018-03-04T07:19:27.728Z,41.7
2018-03-04T07:20:29.412Z,41.7
2018-03-04T07:21:31.069Z,41.9
2018-03-04T07:22:33.244Z,42.5
2018-03-04T07:23:34.889Z,42.2
2018-03-04T07:24:36.538Z,42.8
2018-03-04T07:25:38.205Z,42.5
2018-03-04T07:26:39.862Z,43.8
2018-03-04T07:27:41.520Z,43.8
2018-03-04T07:28:43.180Z,44.1
2018-03-04T07:29:44.871Z,44.6
2018-03-04T07:30:46.501Z,45.3
2018-03-04T07:31:48.147Z,45.1
2018-03-04T07:32:49.797Z,45.3
2018-03-04T07:33:51.459Z,45.8
2018-03-04T07:34:53.127Z,46.0
2018-03-04T07:35:54.780Z,45.9
2018-03-04T07:36:56.464Z,45.9
2018-03-04T07:37:58.105Z,45.8
2018-03-04T07:38:59.750Z,45.5
2018-03-04T07:40:01.413Z,45.4
2018-03-04T07:41:03.066Z,45.3
2018-03-04T07:42:04.733Z,45.4
2018-03-04T07:43:06.384Z,45.6
2018-03-04T07:44:08.033Z,44.9
2018-03-04T07:45:09.691Z,44.8
2018-03-04T07:46:11.349Z,45.5
2018-03-04T07:47:12.995Z,45.0
2018-03-04T07:48:15.512Z,45.1
2018-03-04T07:49:17.158Z,45.0
2018-03-04T07:50:18.816Z,45.0
2018-03-04T07:51:20.470Z,45.1
2018-03-04T07:52:22.181Z,45.2
2018-03-04T07:53:23.785Z,45.1
2018-03-04T07:54:25.445Z,45.0
2018-03-04T07:55:27.091Z,44.8
2018-03-04T07:56:28.817Z,45.6
2018-03-04T07:57:30.473Z,45.4
2018-03-04T07:58:32.129Z,45.2
2018-03-04T07:59:33.878Z,45.6
2018-03-04T08:00:35.871Z,44.8
2018-03-04T08:01:37.688Z,45.2
2018-03-04T08:02:39.333Z,44.5
2018-03-04T08:03:40.990Z,44.5
2018-03-04T08:04:42.792Z,44.7
2018-03-04T08:05:44.461Z,44.7
2018-03-04T08:06:46.116Z,44.7
2018-03-04T08:07:47.772Z,44.7
2018-03-04T08:08:49.568Z,44.4
2018-03-04T08:09:51.396Z,44.2
2018-03-04T08:10:53.052Z,44.7
2018-03-04T08:11:54.743Z,45.3
2018-03-04T08:12:56.445Z,45.0
2018-03-04T08:13:58.103Z,45.2
2018-03-04T08:14:59.788Z,45.5
2018-03-04T08:16:01.456Z,45.5
2018-03-04T08:17:03.120Z,45.7
2018-03-04T08:18:04.874Z,45.9
2018-03-04T08:19:09.399Z,45.9
2018-03-04T08:20:13.173Z,47.2
2018-03-04T08:21:19.698Z,47.3
2018-03-04T08:22:21.296Z,47.2
2018-03-04T08:23:22.948Z,46.9
2018-03-04T08:24:24.612Z,46.7
2018-03-04T08:25:26.258Z,47.0
2018-03-04T08:26:27.911Z,46.9
2018-03-04T08:27:29.583Z,46.8
2018-03-04T08:28:31.302Z,46.4
2018-03-04T08:29:32.885Z,46.6
2018-03-04T08:30:34.615Z,47.1
2018-03-04T08:31:36.573Z,47.0
2018-03-04T08:32:38.263Z,47.1
2018-03-04T08:33:40.339Z,47.9
2018-03-04T08:34:42.054Z,48.0
2018-03-04T08:35:43.707Z,47.8
2018-03-04T08:36:45.363Z,47.6
2018-03-04T08:37:47.014Z,47.8
2018-03-04T08:38:48.691Z,47.8
2018-03-04T08:39:50.332Z,47.5
2018-03-04T08:40:51.989Z,46.4
2018-03-04T08:41:53.643Z,45.6
2018-03-04T08:42:55.309Z,45.1
2018-03-04T08:43:56.968Z,45.1
2018-03-04T08:44:58.624Z,44.2
2018-03-04T08:46:00.280Z,44.1
2018-03-04T08:47:01.968Z,43.9
2018-03-04T08:48:03.639Z,43.7
2018-03-04T08:49:05.291Z,44.0
2018-03-04T08:50:06.944Z,42.4
2018-03-04T08:51:08.598Z,43.4
2018-03-04T08:52:10.258Z,44.0
2018-03-04T08:53:13.496Z,43.8
2018-03-04T08:54:15.197Z,43.9
2018-03-04T08:55:16.856Z,44.0
2018-03-04T08:56:18.646Z,45.2
2018-03-04T08:57:20.298Z,45.3
2018-03-04T08:58:21.956Z,44.3
2018-03-04T08:59:23.604Z,43.7
2018-03-04T09:00:25.277Z,43.3
2018-03-04T09:01:26.936Z,44.0
2018-03-04T09:02:28.695Z,44.4
2018-03-04T09:03:30.357Z,45.1
2018-03-04T09:04:31.969Z,45.0
2018-03-04T09:05:33.628Z,45.2
2018-03-04T09:06:35.284Z,44.4
2018-03-04T09:07:36.947Z,44.5
2018-03-04T09:08:38.621Z,45.2
2018-03-04T09:09:40.266Z,44.2
2018-03-04T09:10:42.458Z,43.7
2018-03-04T09:11:44.108Z,43.8
2018-03-04T09:12:45.762Z,43.7
2018-03-04T09:13:47.416Z,43.7
2018-03-04T09:14:49.072Z,43.3
2018-03-04T09:15:50.744Z,42.5
2018-03-04T09:16:52.404Z,41.6
2018-03-04T09:17:54.067Z,41.3
2018-03-04T09:18:55.734Z,40.5
2018-03-04T09:19:57.381Z,40.1
2018-03-04T09:20:59.039Z,39.5
2018-03-04T09:22:00.689Z,39.0
2018-03-04T09:23:02.347Z,38.3
2018-03-04T09:24:04.012Z,37.9
2018-03-04T09:25:05.677Z,38.0
2018-03-04T09:26:07.333Z,38.0
2018-03-04T09:27:08.980Z,38.1
2018-03-04T09:28:10.818Z,38.0
2018-03-04T09:29:12.713Z,38.2
2018-03-04T09:30:14.354Z,38.5
2018-03-04T09:31:16.207Z,39.0
2018-03-04T09:32:18.892Z,38.9
2018-03-04T09:33:20.549Z,39.6
2018-03-04T09:34:22.655Z,40.3
2018-03-04T09:35:24.315Z,39.7
2018-03-04T09:36:25.979Z,40.1
2018-03-04T09:37:27.638Z,40.3
2018-03-04T09:38:29.312Z,40.3
2018-03-04T09:39:31.004Z,40.1
2018-03-04T09:40:32.658Z,40.1
2018-03-04T09:41:34.474Z,40.1
2018-03-04T09:42:36.222Z,40.5
2018-03-04T09:43:37.900Z,40.1
2018-03-04T09:44:40.374Z,39.8
2018-03-04T09:45:42.024Z,39.4
2018-03-04T09:46:43.829Z,39.7
2018-03-04T09:47:45.520Z,39.6
2018-03-04T09:48:47.204Z,39.7
2018-03-04T09:49:49.065Z,40.2
2018-03-04T09:50:50.755Z,40.1
2018-03-04T09:51:52.745Z,40.8
2018-03-04T09:52:54.675Z,41.1
2018-03-04T09:53:56.401Z,40.9
2018-03-04T09:54:58.202Z,40.5
2018-03-04T09:55:59.835Z,40.5
2018-03-04T09:57:01.688Z,40.5
2018-03-04T09:58:03.367Z,39.4
2018-03-04T09:59:05.210Z,39.4
2018-03-04T10:00:07.210Z,39.1
2018-03-04T10:01:08.935Z,39.4
2018-03-04T10:02:10.819Z,39.3
2018-03-04T10:03:12.828Z,38.9
2018-03-04T10:04:14.602Z,39.7
2018-03-04T10:05:16.445Z,40.5
2018-03-04T10:06:18.193Z,41.4
2018-03-04T10:07:19.955Z,41.3
2018-03-04T10:08:21.654Z,40.5
2018-03-04T10:09:23.428Z,40.2
2018-03-04T10:10:25.167Z,39.5
2018-03-04T10:11:26.840Z,39.5
2018-03-04T10:12:28.522Z,40.1
2018-03-04T10:13:30.226Z,39.4
2018-03-04T10:14:31.919Z,40.1
2018-03-04T10:15:33.566Z,40.3
2018-03-04T10:16:35.218Z,40.8
2018-03-04T10:17:36.877Z,41.1
2018-03-04T10:18:38.550Z,41.1
2018-03-04T10:19:40.205Z,40.8
2018-03-04T10:20:41.864Z,40.6
2018-03-04T10:21:43.527Z,39.9
2018-03-04T10:22:45.193Z,39.2
2018-03-04T10:23:46.870Z,38.8
2018-03-04T10:24:48.573Z,37.9
2018-03-04T10:25:50.227Z,37.9
2018-03-04T10:26:51.891Z,37.9
2018-03-04T10:27:53.552Z,38.2
2018-03-04T10:28:55.214Z,39.1
2018-03-04T10:29:56.878Z,38.8
2018-03-04T10:30:59.402Z,39.0
2018-03-04T10:32:01.064Z,39.8
2018-03-04T10:33:02.715Z,40.1
2018-03-04T10:34:04.406Z,40.3
2018-03-04T10:35:06.073Z,40.3
2018-03-04T10:36:07.888Z,39.3
2018-03-04T10:37:09.584Z,39.4
2018-03-04T10:38:11.472Z,39.1
2018-03-04T10:39:13.125Z,39.2
2018-03-04T10:40:14.787Z,38.1
2018-03-04T10:41:16.482Z,38.3
2018-03-04T10:42:18.148Z,39.1
2018-03-04T10:43:19.812Z,39.8
2018-03-04T10:44:21.478Z,40.7
2018-03-04T10:45:23.156Z,40.7
2018-03-04T10:46:24.805Z,41.1
2018-03-04T10:47:26.466Z,41.3
2018-03-04T10:48:28.383Z,41.6
2018-03-04T10:49:30.050Z,41.7
2018-03-04T10:50:31.716Z,41.8
2018-03-04T10:51:35.975Z,42.5
2018-03-04T10:52:37.464Z,43.0
2018-03-04T10:53:39.121Z,44.3
2018-03-04T10:54:40.798Z,45.7
2018-03-04T11:01:48.318Z,50.0
2018-03-04T11:02:50.215Z,50.9
2018-03-04T11:03:51.965Z,51.5
2018-03-04T11:04:53.595Z,52.5
2018-03-04T11:05:55.248Z,54.3
2018-03-04T11:06:58.356Z,53.5
2018-03-04T11:08:02.517Z,51.7
2018-03-04T11:09:04.713Z,51.5
2018-03-04T11:10:07.086Z,52.1
2018-03-04T11:11:08.809Z,50.7
2018-03-04T11:12:10.485Z,52.0
2018-03-04T11:13:12.150Z,52.3
2018-03-04T11:14:13.840Z,51.6
2018-03-04T11:15:15.802Z,50.4
2018-03-04T11:16:17.722Z,51.4
2018-03-04T11:17:19.527Z,51.6
2018-03-04T11:18:21.259Z,50.2
2018-03-04T11:19:22.987Z,49.3
2018-03-04T11:20:24.646Z,49.5
2018-03-04T11:21:27.314Z,49.5
2018-03-04T11:22:32.973Z,47.5
2018-03-04T11:23:34.766Z,49.0
2018-03-04T11:24:36.583Z,49.2
2018-03-04T11:25:38.330Z,49.7
2018-03-04T11:26:40.076Z,50.8
2018-03-04T11:27:41.748Z,51.6
2018-03-04T11:28:43.572Z,51.5
2018-03-04T11:29:45.196Z,51.4
2018-03-04T11:30:46.871Z,54.3
2018-03-04T11:31:48.547Z,54.1
2018-03-04T11:32:50.235Z,52.4
2018-03-04T11:33:52.007Z,54.9
2018-03-04T11:34:53.709Z,57.6
2018-03-04T11:35:55.448Z,57.5
2018-03-04T11:36:57.148Z,56.7
2018-03-04T11:37:58.837Z,53.7
2018-03-04T11:39:03.350Z,53.5
2018-03-04T11:40:05.164Z,58.7
2018-03-04T11:41:06.882Z,56.1
2018-03-04T11:42:08.635Z,54.9
2018-03-04T11:43:10.394Z,56.6
2018-03-04T11:44:12.125Z,60.3
2018-03-04T11:45:13.932Z,59.8
2018-03-04T11:46:15.744Z,64.7
2018-03-04T11:47:17.599Z,61.7
2018-03-04T11:48:19.335Z,56.6
2018-03-04T11:49:21.066Z,54.2
2018-03-04T11:50:22.995Z,57.1
2018-03-04T11:51:24.837Z,54.9
2018-03-04T11:52:26.712Z,58.1
2018-03-04T11:53:28.514Z,58.9
2018-03-04T11:54:30.238Z,59.7
2018-03-04T11:55:31.920Z,62.8
2018-03-04T11:56:33.633Z,62.6
2018-03-04T11:57:35.331Z,60.3
2018-03-04T11:58:37.034Z,60.3
2018-03-04T11:59:38.709Z,60.5
2018-03-04T12:00:40.437Z,61.3
2018-03-04T12:01:42.167Z,58.4
2018-03-04T12:02:43.890Z,58.4
2018-03-04T12:03:46.261Z,59.2
2018-03-04T12:04:47.947Z,58.5
2018-03-04T12:05:49.660Z,60.0
2018-03-04T12:06:51.465Z,62.2
2018-03-04T12:07:53.653Z,63.2
2018-03-04T12:08:55.386Z,62.6
2018-03-04T12:09:57.073Z,66.4
2018-03-04T12:11:00.241Z,69.4
2018-03-04T12:12:02.319Z,69.5
2018-03-04T12:13:04.181Z,70.4
2018-03-04T12:14:07.311Z,71.6
2018-03-04T12:15:09.049Z,68.8
2018-03-04T12:16:10.726Z,70.0
2018-03-04T12:17:12.408Z,67.5
2018-03-04T12:18:14.091Z,72.1
2018-03-04T12:19:15.761Z,77.6
2018-03-04T12:20:17.749Z,77.5
2018-03-04T12:21:20.213Z,78.8
2018-03-04T12:22:22.241Z,79.3
2018-03-04T12:23:24.172Z,78.4
2018-03-04T12:24:26.208Z,78.5
2018-03-04T12:25:28.186Z,78.5
2018-03-04T12:26:30.225Z,79.2
2018-03-04T12:27:32.164Z,80.7
2018-03-04T12:28:34.004Z,79.4
2018-03-04T12:29:36.111Z,75.8
2018-03-04T12:30:38.857Z,79.3
2018-03-04T12:31:41.135Z,78.1
2018-03-04T12:32:42.960Z,73.3
2018-03-04T12:33:45.309Z,68.4
2018-03-04T12:34:47.411Z,72.0
2018-03-04T12:35:49.493Z,68.8
2018-03-04T12:36:51.516Z,70.9
2018-03-04T12:37:54.124Z,72.1
2018-03-04T12:38:56.051Z,70.8
2018-03-04T12:39:58.043Z,67.6
2018-03-04T12:40:59.969Z,68.2
2018-03-04T12:42:02.087Z,68.5
2018-03-04T12:43:04.189Z,73.1
2018-03-04T12:44:06.617Z,77.8
2018-03-04T12:45:08.680Z,79.5
2018-03-04T12:46:10.715Z,79.4
2018-03-04T12:47:12.705Z,72.0
2018-03-04T12:48:14.853Z,72.8
2018-03-04T12:49:17.006Z,74.3
2018-03-04T12:50:23.574Z,75.8
2018-03-04T12:51:25.694Z,72.8
2018-03-04T12:52:27.639Z,75.5
2018-03-04T12:53:29.580Z,75.1
2018-03-04T12:54:31.886Z,72.0
2018-03-04T12:55:34.089Z,72.1
2018-03-04T12:56:36.284Z,73.7
2018-03-04T12:57:38.699Z,77.2
2018-03-04T12:58:40.747Z,76.3
2018-03-04T12:59:44.068Z,76.1
2018-03-04T13:00:46.090Z,72.1
2018-03-04T13:01:48.123Z,69.8
2018-03-04T13:02:50.182Z,71.9
2018-03-04T13:03:52.183Z,72.1
2018-03-04T13:04:54.238Z,71.9
2018-03-04T13:05:56.258Z,70.9
2018-03-04T13:06:58.137Z,67.4
2018-03-04T13:08:00.020Z,68.7
2018-03-04T13:09:02.130Z,70.0
2018-03-04T13:10:04.188Z,69.7
2018-03-04T13:11:06.351Z,72.1
2018-03-04T13:12:08.376Z,69.5
2018-03-04T13:13:10.448Z,67.4
2018-03-04T13:14:12.425Z,62.5
2018-03-04T13:15:14.538Z,62.5
2018-03-04T13:16:16.591Z,64.0
2018-03-04T13:17:18.569Z,61.6
2018-03-04T13:18:20.509Z,61.7
2018-03-04T13:19:22.469Z,65.0
2018-03-04T13:20:24.372Z,66.2
2018-03-04T13:21:26.354Z,65.0
2018-03-04T13:22:28.335Z,65.2
2018-03-04T13:23:30.276Z,66.6
2018-03-04T13:24:32.254Z,63.7
2018-03-04T13:25:34.295Z,63.2
2018-03-04T13:26:36.235Z,64.8
2018-03-04T13:27:38.275Z,65.7
2018-03-04T13:28:40.359Z,66.3
2018-03-04T13:29:42.014Z,64.9
2018-03-04T13:30:43.745Z,64.0
2018-03-04T13:31:45.467Z,64.1
2018-03-04T13:32:47.185Z,65.7
2018-03-04T13:33:48.942Z,65.8
2018-03-04T13:34:50.743Z,66.1
2018-03-04T13:35:52.470Z,66.7
2018-03-04T13:36:54.271Z,67.4
2018-03-04T13:37:55.983Z,65.3
2018-03-04T13:38:57.722Z,62.3
2018-03-04T13:39:59.512Z,62.6
2018-03-04T13:41:01.278Z,62.4
2018-03-04T13:42:02.984Z,62.2
2018-03-04T13:43:05.217Z,61.6
2018-03-04T13:44:08.235Z,63.0
2018-03-04T13:45:09.957Z,63.7
2018-03-04T13:46:11.756Z,67.3
2018-03-04T13:47:13.501Z,71.0
2018-03-04T13:48:17.500Z,70.1
2018-03-04T13:49:23.219Z,71.1
2018-03-04T13:50:24.900Z,72.7
2018-03-04T13:51:26.606Z,72.6
2018-03-04T13:52:28.306Z,69.3
2018-03-04T13:53:30.029Z,70.3
2018-03-04T13:54:31.876Z,73.1
2018-03-04T13:55:33.545Z,72.9
2018-03-04T13:56:35.561Z,72.4
2018-03-04T13:57:39.601Z,73.7
2018-03-04T13:58:41.767Z,70.9
2018-03-04T13:59:43.711Z,69.0